Time,TemperatureF,DewpointF,PressureIn,WindDirection,WindDirectionDegrees,WindSpeedMPH,WindSpeedGustMPH,Humidity,HourlyPrecipIn,Conditions,Clouds,dailyrainin,SolarRadiationWatts/m^2,SoftwareType,DateUTC
2013-08-13 00:03:00,74.0,71.0,-100.00,SSW,209,5.0,9.0,89,0.00,,,0.78,0.000000,,2013-08-13 04:03:00,
2013-08-13 00:42:00,72.0,71.0,-100.00,North,355,3.0,9.0,97,0.00,,,0.78,0.000000,,2013-08-13 04:42:00,
2013-08-13 00:53:00,72.0,71.0,-100.00,North,355,3.0,9.0,97,0.00,,,0.78,0.000000,,2013-08-13 04:53:00,
2013-08-13 01:02:00,72.0,71.0,-100.00,North,355,3.0,9.0,97,0.00,,,0.78,0.000000,,2013-08-13 05:02:00,
2013-08-13 01:42:00,71.0,71.0,-100.00,SSE,154,3.0,4.0,99,0.00,,,0.78,0.000000,,2013-08-13 05:42:00,
2013-08-13 01:52:00,71.0,71.0,-100.00,SSE,154,3.0,4.0,99,0.00,,,0.78,0.000000,,2013-08-13 05:52:00,
2013-08-13 02:02:00,71.0,71.0,-100.00,SSE,154,3.0,4.0,99,0.00,,,0.78,0.000000,,2013-08-13 06:02:00,
2013-08-13 02:42:00,71.0,71.0,-100.00,SSW,204,5.0,9.0,100,0.00,,,0.78,0.000000,,2013-08-13 06:42:00,
2013-08-13 02:53:00,71.0,71.0,-100.00,SSW,204,5.0,9.0,100,0.00,,,0.78,0.000000,,2013-08-13 06:53:00,
2013-08-13 03:01:00,71.0,71.0,-100.00,SSW,204,5.0,9.0,100,0.00,,,0.78,0.000000,,2013-08-13 07:01:00,
2013-08-13 03:42:00,72.0,72.0,-100.00,South,190,4.0,10.0,100,0.00,,,0.78,0.000000,,2013-08-13 07:42:00,
2013-08-13 03:52:00,72.0,72.0,-100.00,South,190,4.0,10.0,100,0.00,,,0.78,0.000000,,2013-08-13 07:52:00,
2013-08-13 04:02:00,72.0,72.0,-100.00,South,190,4.0,10.0,100,0.00,,,0.78,0.000000,,2013-08-13 08:02:00,
2013-08-13 04:42:00,72.0,72.0,-100.00,SW,223,5.0,9.0,100,0.00,,,0.78,0.000000,,2013-08-13 08:42:00,
2013-08-13 04:52:00,72.0,72.0,-100.00,SW,223,5.0,9.0,100,0.00,,,0.78,0.000000,,2013-08-13 08:52:00,
2013-08-13 05:01:00,72.0,72.0,-100.00,SW,223,5.0,9.0,100,0.00,,,0.78,0.000000,,2013-08-13 09:01:00,
2013-08-13 05:43:00,72.0,72.0,-100.00,SW,227,5.0,9.0,100,0.00,,,0.78,0.000000,,2013-08-13 09:43:00,
2013-08-13 05:54:00,72.0,72.0,-100.00,SW,227,5.0,9.0,100,0.00,,,0.78,0.000000,,2013-08-13 09:54:00,
2013-08-13 06:03:00,72.0,72.0,-100.00,SW,227,5.0,9.0,100,0.00,,,0.78,0.000000,,2013-08-13 10:03:00,
2013-08-13 06:43:00,72.0,72.0,-100.00,WSW,253,3.0,9.0,100,0.00,,,0.78,0.000000,,2013-08-13 10:43:00,
2013-08-13 06:53:00,72.0,72.0,-100.00,WSW,253,3.0,9.0,100,0.00,,,0.78,0.000000,,2013-08-13 10:53:00,
2013-08-13 07:02:00,72.0,72.0,-100.00,WSW,253,3.0,9.0,100,0.00,,,0.78,0.000000,,2013-08-13 11:02:00,
2013-08-13 07:42:00,71.0,71.0,-100.00,SW,232,6.0,13.0,100,0.14,,,0.92,0.000000,,2013-08-13 11:42:00,
2013-08-13 07:52:00,71.0,71.0,-100.00,SW,232,6.0,13.0,100,0.14,,,0.92,0.000000,,2013-08-13 11:52:00,
2013-08-13 08:01:00,71.0,71.0,-100.00,SW,232,6.0,13.0,100,0.14,,,0.92,0.000000,,2013-08-13 12:01:00,
2013-08-13 08:42:00,70.0,70.0,-100.00,SSW,209,3.0,9.0,100,0.07,,,0.99,8.000000,,2013-08-13 12:42:00,
2013-08-13 08:52:00,70.0,70.0,-100.00,SSW,209,3.0,9.0,100,0.07,,,0.99,8.000000,,2013-08-13 12:52:00,
2013-08-13 09:01:00,70.0,70.0,-100.00,SSW,209,3.0,9.0,100,0.07,,,0.99,8.000000,,2013-08-13 13:01:00,
2013-08-13 09:42:00,71.0,71.0,-100.00,SW,229,4.0,6.0,100,0.00,,,0.99,81.000000,,2013-08-13 13:42:00,
2013-08-13 09:52:00,71.0,71.0,-100.00,SW,229,4.0,6.0,100,0.00,,,0.99,81.000000,,2013-08-13 13:52:00,
2013-08-13 10:02:00,71.0,71.0,-100.00,SW,229,4.0,6.0,100,0.00,,,0.99,81.000000,,2013-08-13 14:02:00,
2013-08-13 10:42:00,74.0,73.0,-100.00,West,280,2.0,6.0,97,0.00,,,0.99,248.000000,,2013-08-13 14:42:00,
2013-08-13 10:52:00,74.0,73.0,-100.00,West,280,2.0,6.0,97,0.00,,,0.99,248.000000,,2013-08-13 14:52:00,
2013-08-13 11:02:00,74.0,73.0,-100.00,West,280,2.0,6.0,97,0.00,,,0.99,248.000000,,2013-08-13 15:02:00,
2013-08-13 11:44:00,78.0,76.0,-100.00,West,272,4.0,8.0,94,0.00,,,0.99,352.000000,,2013-08-13 15:44:00,
2013-08-13 11:54:00,78.0,76.0,-100.00,West,272,4.0,8.0,94,0.00,,,0.99,352.000000,,2013-08-13 15:54:00,
2013-08-13 12:04:00,78.0,76.0,-100.00,West,272,4.0,8.0,94,0.00,,,0.99,352.000000,,2013-08-13 16:04:00,
2013-08-13 12:05:00,80.0,76.0,-100.00,WNW,295,3.0,6.0,87,0.00,,,0.99,553.000000,,2013-08-13 16:05:00,
2013-08-13 12:45:00,80.0,76.0,-100.00,WNW,295,3.0,6.0,87,0.00,,,0.99,553.000000,,2013-08-13 16:45:00,
2013-08-13 12:54:00,80.0,76.0,-100.00,WNW,295,3.0,6.0,87,0.00,,,0.99,553.000000,,2013-08-13 16:54:00,
2013-08-13 13:05:00,83.0,74.0,-100.00,West,277,4.0,7.0,74,0.00,,,0.90,907.000000,,2013-08-13 17:05:00,
2013-08-13 13:46:00,-999.0,-99.9,-100.00,West,277,4.0,7.0,-999,0.00,,,0.90,907.000000,,2013-08-13 17:46:00,
2013-08-13 13:56:00,83.0,74.0,-100.00,West,277,4.0,7.0,74,0.00,,,0.90,907.000000,,2013-08-13 17:56:00,
2013-08-13 14:45:00,85.0,75.0,-100.00,WNW,283,4.0,7.0,73,0.00,,,0.90,864.000000,,2013-08-13 18:45:00,
2013-08-13 14:56:00,85.0,75.0,-100.00,WNW,283,4.0,7.0,73,0.00,,,0.90,864.000000,,2013-08-13 18:56:00,
2013-08-13 15:04:00,85.0,75.0,-100.00,WNW,283,4.0,7.0,73,0.00,,,0.90,864.000000,,2013-08-13 19:04:00,
2013-08-13 15:44:00,87.0,73.0,-100.00,West,281,3.0,7.0,63,0.00,,,0.64,1031.000000,,2013-08-13 19:44:00,
2013-08-13 15:55:00,87.0,73.0,-100.00,West,281,3.0,7.0,63,0.00,,,0.64,1031.000000,,2013-08-13 19:55:00,
2013-08-13 16:04:00,87.0,73.0,-100.00,West,281,3.0,7.0,63,0.00,,,0.64,1031.000000,,2013-08-13 20:04:00,
2013-08-13 16:45:00,86.0,75.0,-100.00,WNW,303,3.0,10.0,71,0.00,,,0.64,706.000000,,2013-08-13 20:45:00,
2013-08-13 16:53:00,86.0,75.0,-100.00,WNW,303,3.0,10.0,71,0.00,,,0.64,706.000000,,2013-08-13 20:53:00,
2013-08-13 17:01:00,86.0,75.0,-100.00,WNW,303,3.0,10.0,71,0.00,,,0.64,706.000000,,2013-08-13 21:01:00,
2013-08-13 17:46:00,83.0,72.0,-100.00,NW,313,3.0,8.0,70,0.00,,,0.64,560.000000,,2013-08-13 21:46:00,
2013-08-13 17:54:00,83.0,72.0,-100.00,NW,313,3.0,8.0,70,0.00,,,0.64,560.000000,,2013-08-13 21:54:00,
2013-08-13 18:04:00,83.0,72.0,-100.00,NW,313,3.0,8.0,70,0.00,,,0.64,560.000000,,2013-08-13 22:04:00,
2013-08-13 18:50:00,85.0,73.0,-100.00,WNW,298,3.0,7.0,67,0.00,,,0.54,579.000000,,2013-08-13 22:50:00,
2013-08-13 18:57:00,85.0,73.0,-100.00,WNW,298,3.0,7.0,67,0.00,,,0.54,579.000000,,2013-08-13 22:57:00,
2013-08-13 19:04:00,85.0,73.0,-100.00,WNW,298,3.0,7.0,67,0.00,,,0.54,579.000000,,2013-08-13 23:04:00,
2013-08-13 19:47:00,79.0,69.0,-100.00,West,274,1.0,5.0,72,0.00,,,0.21,264.000000,,2013-08-13 23:47:00,
2013-08-13 19:57:00,79.0,69.0,-100.00,West,274,1.0,5.0,72,0.00,,,0.21,264.000000,,2013-08-13 23:57:00,
2013-08-13 20:04:00,79.0,69.0,-100.00,West,274,1.0,5.0,72,0.00,,,0.21,264.000000,,2013-08-14 00:04:00,
2013-08-13 20:42:00,76.0,69.0,-100.00,NW,308,3.0,6.0,79,0.00,,,0.21,63.000000,,2013-08-14 00:42:00,
2013-08-13 20:52:00,76.0,69.0,-100.00,NW,308,3.0,6.0,79,0.00,,,0.21,63.000000,,2013-08-14 00:52:00,
2013-08-13 21:01:00,76.0,69.0,-100.00,NW,308,3.0,6.0,79,0.00,,,0.21,63.000000,,2013-08-14 01:01:00,
2013-08-13 21:42:00,74.0,67.0,-100.00,WNW,300,2.0,7.0,78,0.00,,,0.21,5.000000,,2013-08-14 01:42:00,
2013-08-13 21:52:00,74.0,67.0,-100.00,WNW,300,2.0,7.0,78,0.00,,,0.21,5.000000,,2013-08-14 01:52:00,
2013-08-13 22:02:00,74.0,67.0,-100.00,WNW,300,2.0,7.0,78,0.00,,,0.21,5.000000,,2013-08-14 02:02:00,
2013-08-13 22:42:00,74.0,69.0,-100.00,WNW,302,4.0,4.0,84,0.00,,,0.21,0.000000,,2013-08-14 02:42:00,
2013-08-13 22:52:00,74.0,69.0,-100.00,WNW,302,4.0,4.0,84,0.00,,,0.21,0.000000,,2013-08-14 02:52:00,
2013-08-13 23:01:00,74.0,69.0,-100.00,WNW,302,4.0,4.0,84,0.00,,,0.21,0.000000,,2013-08-14 03:01:00,
2013-08-13 23:43:00,73.0,68.0,-100.00,NW,310,4.0,5.0,83,0.00,,,0.21,0.000000,,2013-08-14 03:43:00,
2013-08-13 23:53:00,73.0,68.0,-100.00,NW,310,4.0,5.0,83,0.00,,,0.21,0.000000,,2013-08-14 03:53:00,